createdAt,value
2022-12-06T00:00:49.893Z,1.91
2022-12-06T00:06:04.124Z,1.87
2022-12-06T00:11:13.116Z,1.88
2022-12-06T00:16:20.024Z,1.87
2022-12-06T00:21:30.933Z,1.87
2022-12-06T00:26:39.302Z,1.85
2022-12-06T00:31:45.706Z,1.84
2022-12-06T00:36:53.367Z,1.84
2022-12-06T00:41:59.559Z,1.82
2022-12-06T00:47:06.241Z,1.82
2022-12-06T00:52:14.198Z,1.84
2022-12-06T00:57:20.635Z,1.84
2022-12-06T01:02:26.907Z,1.83
2022-12-06T01:07:34.685Z,1.82
2022-12-06T01:12:41.445Z,1.81
2022-12-06T01:17:47.947Z,1.81
2022-12-06T01:22:55.613Z,1.81
2022-12-06T01:28:01.846Z,1.80
2022-12-06T01:33:08.011Z,1.80
2022-12-06T01:38:15.830Z,1.81
2022-12-06T01:43:37.317Z,1.80
2022-12-06T01:48:44.655Z,1.79
2022-12-06T01:53:55.357Z,1.79
2022-12-06T01:59:02.202Z,1.80
2022-12-06T02:04:09.331Z,1.80
2022-12-06T02:09:18.987Z,1.80
2022-12-06T02:14:29.480Z,1.80
2022-12-06T02:20:05.206Z,1.79
2022-12-06T02:26:04.790Z,1.81
2022-12-06T02:31:18.476Z,1.81
2022-12-06T02:36:33.565Z,1.80
2022-12-06T02:41:46.210Z,1.83
2022-12-06T02:46:56.219Z,1.82
2022-12-06T02:52:03.044Z,1.83
2022-12-06T02:57:09.524Z,1.82
2022-12-06T03:02:17.377Z,1.81
2022-12-06T03:07:43.944Z,1.83
2022-12-06T03:13:03.147Z,1.84
2022-12-06T03:18:20.072Z,1.85
2022-12-06T03:23:32.714Z,1.84
2022-12-06T03:28:40.858Z,1.87
2022-12-06T03:33:53.248Z,1.86
2022-12-06T03:39:04.135Z,1.87
2022-12-06T03:44:12.320Z,1.86
2022-12-06T03:49:23.830Z,1.87
2022-12-06T03:54:30.070Z,1.86
2022-12-06T03:59:36.513Z,1.87
2022-12-06T04:04:44.674Z,1.87
2022-12-06T04:09:56.661Z,1.87
2022-12-06T04:15:03.271Z,1.85
2022-12-06T04:20:12.065Z,1.88
2022-12-06T04:25:18.182Z,1.88
2022-12-06T04:30:41.382Z,1.89
2022-12-06T04:36:06.337Z,1.88
2022-12-06T04:41:33.165Z,1.87
2022-12-06T04:46:39.355Z,1.88
2022-12-06T04:51:47.230Z,1.88
2022-12-06T04:56:53.312Z,1.88
2022-12-06T05:01:59.586Z,1.89
2022-12-06T05:07:07.841Z,1.89
2022-12-06T05:12:14.710Z,1.89
2022-12-06T05:17:20.977Z,1.89
2022-12-06T05:22:28.645Z,1.91
2022-12-06T05:27:36.225Z,1.88
2022-12-06T05:32:42.915Z,1.91
2022-12-06T05:37:50.940Z,1.92
2022-12-06T05:42:57.237Z,1.91
2022-12-06T05:48:03.719Z,1.90
2022-12-06T05:53:12.124Z,1.91
2022-12-06T05:58:19.671Z,1.90
2022-12-06T06:03:26.208Z,1.91
2022-12-06T06:08:34.248Z,1.91
2022-12-06T06:13:40.657Z,1.91
2022-12-06T06:18:47.085Z,1.93
2022-12-06T06:23:57.722Z,1.93
2022-12-06T06:29:04.184Z,1.95
2022-12-06T06:34:10.635Z,1.95
2022-12-06T06:39:18.711Z,1.95
2022-12-06T06:44:25.061Z,1.95
2022-12-06T06:49:31.265Z,1.96
2022-12-06T06:54:39.018Z,1.96
2022-12-06T06:59:45.740Z,1.97
2022-12-06T07:04:52.352Z,1.98
2022-12-06T07:10:00.393Z,2.00
2022-12-06T07:15:08.337Z,2.00
2022-12-06T07:20:15.176Z,2.01
2022-12-06T07:25:22.906Z,2.01
2022-12-06T07:30:29.409Z,2.02
2022-12-06T07:36:10.172Z,2.02
2022-12-06T07:41:29.658Z,2.04
2022-12-06T07:46:36.040Z,2.05
2022-12-06T07:51:42.333Z,2.07
2022-12-06T07:56:50.048Z,2.09
2022-12-06T08:01:57.358Z,2.11
2022-12-06T08:07:03.636Z,2.12
2022-12-06T08:12:12.348Z,2.15
2022-12-06T08:17:18.908Z,2.17
2022-12-06T08:22:25.630Z,2.14
2022-12-06T08:27:33.669Z,2.13
2022-12-06T08:32:40.283Z,2.13
2022-12-06T08:37:46.765Z,2.15
2022-12-06T08:42:55.755Z,2.19
2022-12-06T08:48:02.316Z,2.16
2022-12-06T08:53:08.787Z,2.18
2022-12-06T08:58:16.616Z,2.18
2022-12-06T09:03:23.925Z,2.18
2022-12-06T09:08:30.193Z,2.18
2022-12-06T09:13:39.866Z,2.20
2022-12-06T09:18:47.121Z,2.22
2022-12-06T09:23:56.386Z,2.22
2022-12-06T09:29:04.042Z,2.25
2022-12-06T09:34:11.607Z,2.26
2022-12-06T09:39:22.036Z,2.24
2022-12-06T09:45:10.391Z,2.29
2022-12-06T09:50:28.289Z,2.26
2022-12-06T09:55:53.325Z,2.29
2022-12-06T10:01:12.943Z,2.29
2022-12-06T10:06:23.100Z,2.31
2022-12-06T10:11:54.955Z,2.35
2022-12-06T10:17:13.972Z,2.38
2022-12-06T10:22:32.450Z,2.38
2022-12-06T10:27:41.853Z,2.34
2022-12-06T10:32:57.345Z,2.33
2022-12-06T10:38:15.784Z,2.34
2022-12-06T10:43:30.884Z,2.35
2022-12-06T10:48:46.622Z,2.36
2022-12-06T10:54:01.951Z,2.32
2022-12-06T10:59:26.485Z,2.36
2022-12-06T11:04:38.489Z,2.34
2022-12-06T11:09:47.748Z,2.38
2022-12-06T11:15:00.926Z,2.43
2022-12-06T11:20:23.615Z,2.44
2022-12-06T11:25:36.683Z,2.45
2022-12-06T11:30:43.157Z,2.43
2022-12-06T11:35:51.286Z,2.50
2022-12-06T11:40:58.154Z,2.53
2022-12-06T11:46:07.385Z,2.48
2022-12-06T11:51:21.530Z,2.44
2022-12-06T11:56:31.972Z,2.46
2022-12-06T12:01:47.698Z,2.43
2022-12-06T12:07:01.931Z,2.45
2022-12-06T12:12:18.840Z,2.45
2022-12-06T12:17:32.026Z,2.39
2022-12-06T12:22:43.115Z,2.41
2022-12-06T12:27:52.057Z,2.42
2022-12-06T12:33:21.001Z,2.42
2022-12-06T12:38:40.178Z,2.37
2022-12-06T12:44:13.758Z,2.39
2022-12-06T12:49:33.200Z,2.34
2022-12-06T12:54:41.612Z,2.31
2022-12-06T12:59:48.056Z,2.29
2022-12-06T13:05:24.827Z,2.30
2022-12-06T13:10:35.379Z,2.32
2022-12-06T13:15:47.672Z,2.29
2022-12-06T13:20:57.482Z,2.31
2022-12-06T13:26:20.650Z,2.29
2022-12-06T13:31:33.589Z,2.26
2022-12-06T13:36:40.184Z,2.28
2022-12-06T13:42:18.054Z,2.24
2022-12-06T13:47:51.953Z,2.25
2022-12-06T13:53:04.870Z,2.26
2022-12-06T13:58:53.896Z,2.25
2022-12-06T14:04:01.504Z,2.22
2022-12-06T14:09:12.915Z,2.22
2022-12-06T14:14:24.792Z,2.23
2022-12-06T14:19:41.936Z,2.22
2022-12-06T14:25:02.818Z,2.23
2022-12-06T14:30:25.607Z,2.23
2022-12-06T14:35:36.477Z,2.21
2022-12-06T14:41:03.458Z,2.21
2022-12-06T14:46:16.224Z,2.20
2022-12-06T14:51:27.192Z,2.22
2022-12-06T14:56:37.293Z,2.20
2022-12-06T15:01:54.710Z,2.18
2022-12-06T15:07:01.619Z,2.18
2022-12-06T15:12:42.314Z,2.16
2022-12-06T15:17:51.553Z,2.15
2022-12-06T15:22:58.182Z,2.11
2022-12-06T15:28:04.677Z,2.09
2022-12-06T15:33:18.445Z,2.13
2022-12-06T15:38:24.966Z,2.13
2022-12-06T15:43:34.408Z,2.08
2022-12-06T15:48:43.304Z,2.09
2022-12-06T15:53:52.205Z,2.05
2022-12-06T15:58:58.983Z,2.07
2022-12-06T16:04:07.395Z,2.08
2022-12-06T16:09:15.558Z,2.09
2022-12-06T16:14:23.873Z,2.07
2022-12-06T16:19:45.792Z,2.06
2022-12-06T16:24:54.156Z,2.05
2022-12-06T16:30:02.467Z,2.04
2022-12-06T16:35:13.649Z,2.09
2022-12-06T16:40:23.971Z,2.09
2022-12-06T16:45:31.937Z,2.09
2022-12-06T16:50:40.765Z,2.09
2022-12-06T16:55:48.186Z,2.07
2022-12-06T17:00:55.694Z,2.06
2022-12-06T17:06:08.703Z,1.98
2022-12-06T17:11:39.774Z,1.95
2022-12-06T17:16:48.839Z,1.94
2022-12-06T17:22:02.756Z,1.91
2022-12-06T17:27:14.303Z,1.78
2022-12-06T17:32:22.952Z,1.70
2022-12-06T17:37:34.824Z,1.60
2022-12-06T17:43:00.008Z,1.46
2022-12-06T17:48:09.096Z,1.45
2022-12-06T17:53:20.006Z,1.43
2022-12-06T17:58:28.683Z,1.41
2022-12-06T18:03:36.113Z,1.43
2022-12-06T18:08:45.791Z,1.51
2022-12-06T18:13:56.296Z,1.42
2022-12-06T18:19:08.767Z,1.34
2022-12-06T18:24:22.629Z,1.27
2022-12-06T18:29:33.143Z,1.26
2022-12-06T18:34:42.065Z,1.33
2022-12-06T18:39:54.273Z,1.38
2022-12-06T18:45:05.412Z,1.38
2022-12-06T18:50:16.015Z,1.39
2022-12-06T18:55:26.113Z,1.33
2022-12-06T19:00:36.137Z,1.25
2022-12-06T19:06:06.455Z,1.17
2022-12-06T19:11:31.564Z,1.15
2022-12-06T19:16:42.798Z,1.13
2022-12-06T19:21:53.434Z,1.06
2022-12-06T19:27:04.348Z,1.10
2022-12-06T19:32:25.043Z,1.08
2022-12-06T19:37:35.178Z,1.20
2022-12-06T19:43:03.493Z,1.13
2022-12-06T19:48:15.336Z,1.04
2022-12-06T19:53:26.794Z,1.14
2022-12-06T19:58:39.382Z,1.19
2022-12-06T20:03:48.420Z,1.22
2022-12-06T20:09:02.278Z,1.24
2022-12-06T20:14:18.732Z,1.27
2022-12-06T20:19:29.392Z,1.27
2022-12-06T20:24:39.252Z,1.24
2022-12-06T20:29:51.272Z,1.22
2022-12-06T20:35:00.866Z,1.23
2022-12-06T20:40:16.140Z,1.17
2022-12-06T20:45:29.927Z,1.12
2022-12-06T20:50:45.852Z,1.12
2022-12-06T20:55:54.610Z,1.05
2022-12-06T21:01:06.323Z,1.11
2022-12-06T21:06:14.385Z,1.09
2022-12-06T21:11:24.031Z,1.09
2022-12-06T21:16:38.580Z,1.14
2022-12-06T21:21:50.681Z,1.06
2022-12-06T21:26:57.880Z,1.05
2022-12-06T21:32:05.755Z,1.11
2022-12-06T21:37:12.212Z,1.09
2022-12-06T21:42:21.511Z,1.01
2022-12-06T21:47:29.403Z,0.91
2022-12-06T21:52:35.944Z,0.91
2022-12-06T21:57:42.553Z,1.01
2022-12-06T22:02:54.803Z,1.00
2022-12-06T22:08:01.384Z,1.06
2022-12-06T22:13:08.148Z,1.08
2022-12-06T22:18:15.944Z,1.07
2022-12-06T22:23:22.415Z,1.04
2022-12-06T22:28:29.614Z,1.01
2022-12-06T22:33:37.757Z,0.99
2022-12-06T22:38:44.626Z,1.02
2022-12-06T22:43:54.128Z,1.03
2022-12-06T22:49:03.618Z,1.03
2022-12-06T22:54:15.948Z,1.04
2022-12-06T22:59:22.653Z,1.06
2022-12-06T23:04:30.579Z,1.06
2022-12-06T23:09:37.176Z,1.05
2022-12-06T23:14:43.789Z,0.99
2022-12-06T23:19:51.478Z,0.96
2022-12-06T23:24:57.965Z,1.00
2022-12-06T23:30:04.785Z,1.00
2022-12-06T23:35:13.525Z,0.90
2022-12-06T23:40:20.162Z,0.84
2022-12-06T23:45:26.883Z,0.90
2022-12-06T23:50:34.918Z,0.93
2022-12-06T23:55:41.097Z,0.96
